createdAt,value
2019-05-12T00:01:18.762Z,2.53
2019-05-12T00:03:48.498Z,0.50
2019-05-12T00:06:17.806Z,1.40
2019-05-12T00:08:48.717Z,1.37
2019-05-12T00:11:17.950Z,0.40
2019-05-12T00:13:47.821Z,0.40
2019-05-12T00:16:17.680Z,2.23
2019-05-12T00:18:48.302Z,1.03
2019-05-12T00:21:17.655Z,0.50
2019-05-12T00:24:04.640Z,0.30
2019-05-12T00:26:33.460Z,0.53
2019-05-12T00:29:02.319Z,0.50
2019-05-12T00:31:31.232Z,0.40
2019-05-12T00:34:00.155Z,0.93
2019-05-12T00:36:29.353Z,0.63
2019-05-12T00:38:58.524Z,0.90
2019-05-12T00:41:28.397Z,1.73
2019-05-12T00:43:58.273Z,2.17
2019-05-12T00:46:27.862Z,0.50
2019-05-12T00:48:58.525Z,2.60
2019-05-12T00:51:28.812Z,1.70
2019-05-12T00:53:58.114Z,1.00
2019-05-12T00:56:28.469Z,1.20
2019-05-12T00:58:58.044Z,0.53
2019-05-12T01:01:28.499Z,1.43
2019-05-12T01:03:58.046Z,0.53
2019-05-12T01:06:28.279Z,2.53
2019-05-12T01:08:58.025Z,4.13
2019-05-12T01:11:28.639Z,0.60
2019-05-12T01:13:58.324Z,1.03
2019-05-12T01:16:28.838Z,0.60
2019-05-12T01:18:58.580Z,3.33
2019-05-12T01:21:28.715Z,1.00
2019-05-12T01:24:03.288Z,0.80
2019-05-12T01:26:28.498Z,3.57
2019-05-12T01:28:58.047Z,2.00
2019-05-12T01:31:28.707Z,1.07
2019-05-12T01:33:58.598Z,1.07
2019-05-12T01:36:28.662Z,1.83
2019-05-12T01:39:01.593Z,2.00
2019-05-12T01:41:28.766Z,1.27
2019-05-12T01:43:58.391Z,1.57
2019-05-12T01:46:28.835Z,1.83
2019-05-12T01:48:59.115Z,2.20
2019-05-12T01:51:28.503Z,0.90
2019-05-12T01:54:10.706Z,1.13
2019-05-12T01:56:28.816Z,1.80
2019-05-12T01:58:57.883Z,1.00
2019-05-12T02:01:28.053Z,0.87
2019-05-12T02:03:58.556Z,0.60
2019-05-12T02:06:28.006Z,0.90
2019-05-12T02:09:01.607Z,1.97
2019-05-12T02:11:33.452Z,5.10
2019-05-12T02:14:06.291Z,2.10
2019-05-12T02:16:35.213Z,0.93
2019-05-12T02:19:04.154Z,0.70
2019-05-12T02:21:33.028Z,1.50
2019-05-12T02:24:01.922Z,1.77
2019-05-12T02:26:30.799Z,0.47
2019-05-12T02:28:59.702Z,1.43
2019-05-12T02:31:29.390Z,1.50
2019-05-12T02:33:58.844Z,2.37
2019-05-12T02:36:27.763Z,4.13
2019-05-12T02:38:56.612Z,2.63
2019-05-12T02:41:26.124Z,0.87
2019-05-12T02:43:55.675Z,2.77
2019-05-12T02:46:25.551Z,1.13
2019-05-12T02:48:54.936Z,1.00
2019-05-12T02:51:24.805Z,0.50
2019-05-12T02:53:54.792Z,0.50
2019-05-12T02:56:26.125Z,1.57
2019-05-12T02:58:55.484Z,1.10
2019-05-12T03:01:25.889Z,0.43
2019-05-12T03:03:58.092Z,6.90
2019-05-12T03:06:28.567Z,2.47
2019-05-12T03:09:00.365Z,0.60
2019-05-12T03:11:29.477Z,0.57
2019-05-12T03:13:58.360Z,0.77
2019-05-12T03:16:27.313Z,1.17
2019-05-12T03:18:56.209Z,0.87
2019-05-12T03:21:25.050Z,0.70
2019-05-12T03:23:55.093Z,1.40
2019-05-12T03:26:24.890Z,2.00
2019-05-12T03:28:55.612Z,0.60
2019-05-12T03:31:31.039Z,0.30
2019-05-12T03:34:00.041Z,3.20
2019-05-12T03:36:31.971Z,0.60
2019-05-12T03:38:56.497Z,2.47
2019-05-12T03:41:25.347Z,1.33
2019-05-12T03:43:54.969Z,0.63
2019-05-12T03:46:24.954Z,0.63
2019-05-12T03:48:55.387Z,1.00
2019-05-12T03:51:25.265Z,1.10
2019-05-12T03:53:55.720Z,3.80
2019-05-12T03:56:25.856Z,1.80
2019-05-12T03:58:55.290Z,1.93
2019-05-12T04:01:25.498Z,0.40
2019-05-12T04:03:55.123Z,0.70
2019-05-12T04:06:24.664Z,2.50
2019-05-12T04:08:54.957Z,2.17
2019-05-12T04:11:25.166Z,0.87
2019-05-12T04:13:55.058Z,0.70
2019-05-12T04:16:24.866Z,0.57
2019-05-12T04:18:55.231Z,1.73
2019-05-12T04:21:24.610Z,2.43
2019-05-12T04:23:54.792Z,1.57
2019-05-12T04:26:25.339Z,1.90
2019-05-12T04:28:54.938Z,2.00
2019-05-12T04:31:25.101Z,2.10
2019-05-12T04:33:54.837Z,0.83
2019-05-12T04:36:24.821Z,2.13
2019-05-12T04:38:55.575Z,0.70
2019-05-12T04:41:26.085Z,1.00
2019-05-12T04:43:55.275Z,2.87
2019-05-12T04:46:25.266Z,4.57
2019-05-12T04:48:54.747Z,3.03
2019-05-12T04:51:26.030Z,5.90
2019-05-12T04:53:55.001Z,1.57
2019-05-12T04:56:24.925Z,1.50
2019-05-12T04:58:54.754Z,0.80
2019-05-12T05:01:25.308Z,1.63
2019-05-12T05:03:54.741Z,4.20
2019-05-12T05:06:25.425Z,2.40
2019-05-12T05:08:54.526Z,2.10
2019-05-12T05:11:25.063Z,4.23
2019-05-12T05:13:54.818Z,6.37
2019-05-12T05:16:25.002Z,1.77
2019-05-12T05:18:54.447Z,1.30
2019-05-12T05:21:24.039Z,2.10
2019-05-12T05:23:53.737Z,2.73
2019-05-12T05:26:27.936Z,3.17
2019-05-12T05:28:54.240Z,1.40
2019-05-12T05:31:24.314Z,2.27
2019-05-12T05:33:53.737Z,1.67
2019-05-12T05:36:24.822Z,1.77
2019-05-12T05:38:59.578Z,1.57
2019-05-12T05:41:24.111Z,1.57
2019-05-12T05:43:58.276Z,3.03
2019-05-12T05:46:24.173Z,4.10
2019-05-12T05:48:54.224Z,4.87
2019-05-12T05:51:23.812Z,1.50
2019-05-12T05:53:54.008Z,1.43
2019-05-12T05:56:38.371Z,1.40
2019-05-12T05:58:54.615Z,1.77
2019-05-12T06:01:24.434Z,3.17
2019-05-12T06:03:58.297Z,2.20
2019-05-12T06:06:24.254Z,3.10
2019-05-12T06:08:59.656Z,2.93
2019-05-12T06:11:29.352Z,1.83
2019-05-12T06:14:03.090Z,1.63
2019-05-12T06:16:28.775Z,1.90
2019-05-12T06:18:57.679Z,9.10
2019-05-12T06:21:29.019Z,1.90
2019-05-12T06:23:57.121Z,3.30
2019-05-12T06:26:30.973Z,1.73
2019-05-12T06:28:57.803Z,1.67
2019-05-12T06:31:29.747Z,1.70
2019-05-12T06:33:57.280Z,2.40
2019-05-12T06:36:27.323Z,1.37
2019-05-12T06:38:56.435Z,4.10
2019-05-12T06:41:25.903Z,5.87
2019-05-12T06:43:55.015Z,13.63
2019-05-12T06:46:25.902Z,7.40
2019-05-12T06:48:54.512Z,3.53
2019-05-12T06:51:25.832Z,2.80
2019-05-12T06:53:54.502Z,1.40
2019-05-12T06:56:23.652Z,1.63
2019-05-12T06:58:53.497Z,5.63
2019-05-12T07:01:24.176Z,2.63
2019-05-12T07:03:53.482Z,1.83
2019-05-12T07:06:24.568Z,1.17
2019-05-12T07:09:05.307Z,1.40
2019-05-12T07:11:24.244Z,2.90
2019-05-12T07:14:02.205Z,1.10
2019-05-12T07:16:30.041Z,1.57
2019-05-12T07:18:54.760Z,1.33
2019-05-12T07:21:26.975Z,1.77
2019-05-12T07:23:54.191Z,2.20
2019-05-12T07:26:23.529Z,1.43
2019-05-12T07:28:54.093Z,2.00
2019-05-12T07:31:23.379Z,1.40
2019-05-12T07:33:54.255Z,1.33
2019-05-12T07:36:24.299Z,3.43
2019-05-12T07:39:03.730Z,1.10
2019-05-12T07:41:26.502Z,1.07
2019-05-12T07:44:00.763Z,3.60
2019-05-12T07:46:28.498Z,1.37
2019-05-12T07:48:57.465Z,0.97
2019-05-12T07:51:30.380Z,3.30
2019-05-12T07:53:58.963Z,1.63
2019-05-12T07:56:32.542Z,0.90
2019-05-12T07:58:58.061Z,3.27
2019-05-12T08:01:26.977Z,1.17
2019-05-12T08:03:59.998Z,0.97
2019-05-12T08:06:26.436Z,0.80
2019-05-12T08:08:58.821Z,1.40
2019-05-12T08:11:28.704Z,0.97
2019-05-12T08:13:56.395Z,1.40
2019-05-12T08:16:30.293Z,1.77
2019-05-12T08:18:55.833Z,2.07
2019-05-12T08:21:24.692Z,2.37
2019-05-12T08:23:53.615Z,1.33
2019-05-12T08:26:23.931Z,0.90
2019-05-12T08:28:53.531Z,0.80
2019-05-12T08:31:31.652Z,1.40
2019-05-12T08:33:53.791Z,0.60
2019-05-12T08:36:23.697Z,1.63
2019-05-12T08:38:53.595Z,0.60
2019-05-12T08:41:23.549Z,0.93
2019-05-12T08:43:58.001Z,1.70
2019-05-12T08:46:24.338Z,0.67
2019-05-12T08:48:57.855Z,3.80
2019-05-12T08:51:25.011Z,0.80
2019-05-12T08:54:02.472Z,0.97
2019-05-12T08:56:26.236Z,0.90
2019-05-12T08:58:55.361Z,0.70
2019-05-12T09:01:26.539Z,0.77
2019-05-12T09:03:54.834Z,1.33
2019-05-12T09:06:24.075Z,0.80
2019-05-12T09:08:56.029Z,0.60
2019-05-12T09:11:25.044Z,0.60
2019-05-12T09:14:00.693Z,0.60
2019-05-12T09:16:24.599Z,0.60
2019-05-12T09:18:55.307Z,1.23
2019-05-12T09:21:31.625Z,0.60
2019-05-12T09:23:56.088Z,1.07
2019-05-12T09:26:28.384Z,0.30
2019-05-12T09:28:55.757Z,1.20
2019-05-12T09:31:29.145Z,0.60
2019-05-12T09:33:55.205Z,0.53
2019-05-12T09:36:24.417Z,1.30
2019-05-12T09:39:01.274Z,0.40
2019-05-12T09:41:24.130Z,0.40
2019-05-12T09:43:53.405Z,1.23
2019-05-12T09:46:23.328Z,1.20
2019-05-12T09:48:55.041Z,0.37
2019-05-12T09:51:23.867Z,0.30
2019-05-12T09:53:55.337Z,0.50
2019-05-12T09:56:23.989Z,0.93
2019-05-12T09:59:01.646Z,0.40
2019-05-12T10:01:24.165Z,0.50
2019-05-12T10:03:54.322Z,0.37
2019-05-12T10:06:24.550Z,0.70
2019-05-12T10:08:54.836Z,0.50
2019-05-12T10:11:24.235Z,1.27
2019-05-12T10:13:54.276Z,1.43
2019-05-12T10:16:24.116Z,1.93
2019-05-12T10:18:53.192Z,2.10
2019-05-12T10:21:23.824Z,0.40
2019-05-12T10:24:00.255Z,0.30
2019-05-12T10:26:23.115Z,2.10
2019-05-12T10:28:57.846Z,3.53
2019-05-12T10:31:24.252Z,0.90
2019-05-12T10:33:57.138Z,1.50
2019-05-12T10:36:25.343Z,0.20
2019-05-12T10:38:54.179Z,0.27
2019-05-12T10:41:23.669Z,0.20
2019-05-12T10:43:56.055Z,1.23
2019-05-12T10:46:28.341Z,1.37
2019-05-12T10:48:54.119Z,0.80
2019-05-12T10:51:23.868Z,0.37
2019-05-12T10:53:59.807Z,0.43
2019-05-12T10:56:24.203Z,2.57
2019-05-12T10:58:53.630Z,0.47
2019-05-12T11:01:24.222Z,1.00
2019-05-12T11:03:53.516Z,2.30
2019-05-12T11:06:24.296Z,1.57
2019-05-12T11:08:54.116Z,1.80
2019-05-12T11:11:24.390Z,0.60
2019-05-12T11:13:53.800Z,0.60
2019-05-12T11:16:31.133Z,0.83
2019-05-12T11:18:54.218Z,0.60
2019-05-12T11:21:23.257Z,0.40
2019-05-12T11:23:54.169Z,0.50
2019-05-12T11:26:23.497Z,0.43
2019-05-12T11:28:53.273Z,0.77
2019-05-12T11:31:24.386Z,1.53
2019-05-12T11:33:54.094Z,0.40
2019-05-12T11:36:24.235Z,1.60
2019-05-12T11:38:53.424Z,1.03
2019-05-12T11:41:28.111Z,0.50
2019-05-12T11:43:53.021Z,0.53
2019-05-12T11:46:23.876Z,1.80
2019-05-12T11:48:53.901Z,0.30
2019-05-12T11:51:28.877Z,0.60
2019-05-12T11:53:53.680Z,0.50
2019-05-12T11:56:24.342Z,0.40
2019-05-12T11:58:54.171Z,0.40
2019-05-12T12:01:24.887Z,0.47
2019-05-12T12:03:54.670Z,0.50
2019-05-12T12:06:24.147Z,0.87
2019-05-12T12:08:53.721Z,2.20
2019-05-12T12:11:27.579Z,0.37
2019-05-12T12:13:53.644Z,0.40
2019-05-12T12:16:23.715Z,0.73
2019-05-12T12:19:02.171Z,0.77
2019-05-12T12:21:23.784Z,0.77
2019-05-12T12:23:53.476Z,0.50
2019-05-12T12:26:26.131Z,0.57
2019-05-12T12:28:55.321Z,2.67
2019-05-12T12:31:24.187Z,0.80
2019-05-12T12:33:53.606Z,0.50
2019-05-12T12:36:23.689Z,0.73
2019-05-12T12:38:53.488Z,0.90
2019-05-12T12:41:23.745Z,1.30
2019-05-12T12:43:54.067Z,0.90
2019-05-12T12:46:24.680Z,0.73
2019-05-12T12:48:54.248Z,0.70
2019-05-12T12:51:23.693Z,1.27
2019-05-12T12:53:54.122Z,0.50
2019-05-12T12:56:25.145Z,1.20
2019-05-12T12:58:55.471Z,0.67
2019-05-12T13:01:28.643Z,1.87
2019-05-12T13:03:59.242Z,1.87
2019-05-12T13:06:25.502Z,0.50
2019-05-12T13:08:54.421Z,1.33
2019-05-12T13:11:33.302Z,2.60
2019-05-12T13:13:53.883Z,0.77
2019-05-12T13:16:23.836Z,0.97
2019-05-12T13:18:53.835Z,1.03
2019-05-12T13:21:22.927Z,0.77
2019-05-12T13:23:53.810Z,1.33
2019-05-12T13:26:23.874Z,0.87
2019-05-12T13:28:54.983Z,0.50
2019-05-12T13:31:24.308Z,2.37
2019-05-12T13:33:54.796Z,1.93
2019-05-12T13:36:24.315Z,0.50
2019-05-12T13:38:53.498Z,0.50
2019-05-12T13:41:22.309Z,0.50
2019-05-12T13:43:58.070Z,1.13
2019-05-12T13:46:23.745Z,0.30
2019-05-12T13:48:57.763Z,0.53
2019-05-12T13:51:24.162Z,1.97
2019-05-12T13:53:53.256Z,0.93
2019-05-12T13:56:27.833Z,0.43
2019-05-12T13:58:53.989Z,0.50
2019-05-12T14:01:24.922Z,0.50
2019-05-12T14:03:53.781Z,0.43
2019-05-12T14:06:31.563Z,0.50
2019-05-12T14:08:53.846Z,0.67
2019-05-12T14:11:23.886Z,0.50
2019-05-12T14:13:53.063Z,0.43
2019-05-12T14:16:23.890Z,0.50
2019-05-12T14:18:58.746Z,0.53
2019-05-12T14:21:24.468Z,0.53
2019-05-12T14:23:53.603Z,0.40
2019-05-12T14:26:24.244Z,1.20
2019-05-12T14:28:53.425Z,1.67
2019-05-12T14:31:29.222Z,0.50
2019-05-12T14:33:53.879Z,0.90
2019-05-12T14:36:26.718Z,0.40
2019-05-12T14:38:53.804Z,0.93
2019-05-12T14:41:26.547Z,0.60
2019-05-12T14:44:01.425Z,0.50
2019-05-12T14:46:24.187Z,0.77
2019-05-12T14:48:54.248Z,0.80
2019-05-12T14:51:24.584Z,0.30
2019-05-12T14:53:53.944Z,0.60
2019-05-12T14:56:23.368Z,0.50
2019-05-12T14:58:56.449Z,0.47
2019-05-12T15:01:23.830Z,0.70
2019-05-12T15:03:53.587Z,1.23
2019-05-12T15:06:25.566Z,0.50
2019-05-12T15:08:54.111Z,0.40
2019-05-12T15:11:23.712Z,0.60
2019-05-12T15:13:54.128Z,0.83
2019-05-12T15:16:23.777Z,0.57
2019-05-12T15:18:54.168Z,1.80
2019-05-12T15:21:27.552Z,0.40
2019-05-12T15:23:53.888Z,0.70
2019-05-12T15:26:24.176Z,0.40
2019-05-12T15:28:54.312Z,0.43
2019-05-12T15:31:23.667Z,0.60
2019-05-12T15:33:52.700Z,0.50
2019-05-12T15:36:21.533Z,1.10
2019-05-12T15:38:55.527Z,0.50
2019-05-12T15:41:20.912Z,0.77
2019-05-12T15:43:52.940Z,0.53
2019-05-12T15:46:20.332Z,0.70
2019-05-12T15:48:49.245Z,0.50
2019-05-12T15:51:18.197Z,0.60
2019-05-12T15:53:47.116Z,1.53
2019-05-12T15:56:22.993Z,0.60
2019-05-12T15:58:47.335Z,0.60
2019-05-12T16:01:17.019Z,1.27
2019-05-12T16:03:49.286Z,0.70
2019-05-12T16:06:18.145Z,0.60
2019-05-12T16:08:47.023Z,0.53
2019-05-12T16:11:15.907Z,2.93
2019-05-12T16:13:53.907Z,0.60
2019-05-12T16:16:15.487Z,1.80
2019-05-12T16:18:48.798Z,0.60
2019-05-12T16:21:15.020Z,1.27
2019-05-12T16:23:44.655Z,0.70
2019-05-12T16:26:15.424Z,1.63
2019-05-12T16:28:44.352Z,1.10
2019-05-12T16:31:14.449Z,1.03
2019-05-12T16:33:43.771Z,0.83
2019-05-12T16:36:14.576Z,0.60
2019-05-12T16:38:44.542Z,0.70
2019-05-12T16:41:14.378Z,1.10
2019-05-12T16:43:44.163Z,1.43
2019-05-12T16:46:14.261Z,1.00
2019-05-12T16:48:47.832Z,2.17
2019-05-12T16:51:14.043Z,0.90
2019-05-12T16:53:43.590Z,1.07
2019-05-12T16:56:14.728Z,1.23
2019-05-12T16:58:43.426Z,1.63
2019-05-12T17:01:14.422Z,1.50
2019-05-12T17:03:44.554Z,2.87
2019-05-12T17:06:14.292Z,1.50
2019-05-12T17:08:43.893Z,1.13
2019-05-12T17:11:24.172Z,1.57
2019-05-12T17:13:47.426Z,1.50
2019-05-12T17:16:14.407Z,2.40
2019-05-12T17:18:44.281Z,5.70
2019-05-12T17:21:14.301Z,1.97
2019-05-12T17:23:43.381Z,1.70
2019-05-12T17:26:13.938Z,2.13
2019-05-12T17:28:43.600Z,1.07
2019-05-12T17:31:12.756Z,1.60
2019-05-12T17:33:41.696Z,1.70
2019-05-12T17:36:12.455Z,1.97
2019-05-12T17:38:43.850Z,1.90
2019-05-12T17:41:15.402Z,2.10
2019-05-12T17:43:54.839Z,2.50
2019-05-12T17:46:17.951Z,3.90
2019-05-12T17:48:44.951Z,2.10
2019-05-12T17:51:14.187Z,1.93
2019-05-12T17:53:43.454Z,2.10
2019-05-12T17:56:13.919Z,3.40
2019-05-12T17:58:46.983Z,5.40
2019-05-12T18:01:14.360Z,1.90
2019-05-12T18:03:48.755Z,2.07
2019-05-12T18:06:14.193Z,3.70
2019-05-12T18:08:44.331Z,1.90
2019-05-12T18:11:15.949Z,2.90
2019-05-12T18:13:44.224Z,2.47
2019-05-12T18:16:20.424Z,2.57
2019-05-12T18:18:43.772Z,3.00
2019-05-12T18:21:21.283Z,3.17
2019-05-12T18:23:46.402Z,2.27
2019-05-12T18:26:17.163Z,4.10
2019-05-12T18:28:46.092Z,3.70
2019-05-12T18:31:15.050Z,2.20
2019-05-12T18:33:53.670Z,3.50
2019-05-12T18:36:14.599Z,4.90
2019-05-12T18:38:44.766Z,3.50
2019-05-12T18:41:14.022Z,6.30
2019-05-12T18:43:43.604Z,2.70
2019-05-12T18:46:14.034Z,2.60
2019-05-12T18:48:43.315Z,5.20
2019-05-12T18:51:16.790Z,4.07
2019-05-12T18:53:43.832Z,4.67
2019-05-12T18:56:19.984Z,4.23
2019-05-12T18:58:44.463Z,3.43
2019-05-12T19:01:14.183Z,4.70
2019-05-12T19:03:50.518Z,6.50
2019-05-12T19:06:14.243Z,4.47
2019-05-12T19:08:43.269Z,4.37
2019-05-12T19:11:21.133Z,4.00
2019-05-12T19:13:51.349Z,4.83
2019-05-12T19:16:14.395Z,7.77
2019-05-12T19:18:43.627Z,5.00
2019-05-12T19:21:16.761Z,4.50
2019-05-12T19:23:43.575Z,5.97
2019-05-12T19:26:13.614Z,7.27
2019-05-12T19:28:52.466Z,5.80
2019-05-12T19:31:14.234Z,5.50
2019-05-12T19:33:53.013Z,4.77
2019-05-12T19:36:13.987Z,4.50
2019-05-12T19:38:43.866Z,3.90
2019-05-12T19:41:14.005Z,7.63
2019-05-12T19:43:45.343Z,4.07
2019-05-12T19:46:13.826Z,4.70
2019-05-12T19:48:49.500Z,4.43
2019-05-12T19:51:23.765Z,5.93
2019-05-12T19:53:43.935Z,5.07
2019-05-12T19:56:18.770Z,4.20
2019-05-12T19:58:46.240Z,12.10
2019-05-12T20:01:15.136Z,5.60
2019-05-12T20:03:44.047Z,5.20
2019-05-12T20:06:13.555Z,4.23
2019-05-12T20:08:43.697Z,5.57
2019-05-12T20:11:14.243Z,10.17
2019-05-12T20:13:44.508Z,6.43
2019-05-12T20:16:21.315Z,7.27
2019-05-12T20:18:49.048Z,5.23
2019-05-12T20:21:14.607Z,5.83
2019-05-12T20:23:43.937Z,6.87
2019-05-12T20:26:14.579Z,6.70
2019-05-12T20:28:50.283Z,6.03
2019-05-12T20:31:14.345Z,6.27
2019-05-12T20:33:43.573Z,9.40
2019-05-12T20:36:14.234Z,5.30
2019-05-12T20:38:44.433Z,6.67
2019-05-12T20:41:20.192Z,6.20
2019-05-12T20:43:44.497Z,7.00
2019-05-12T20:46:21.896Z,6.93
2019-05-12T20:48:44.621Z,8.60
2019-05-12T20:51:15.528Z,6.17
2019-05-12T20:53:44.217Z,7.03
2019-05-12T20:56:20.044Z,6.43
2019-05-12T20:58:46.425Z,6.17
2019-05-12T21:01:14.161Z,4.60
2019-05-12T21:03:46.234Z,4.77
2019-05-12T21:06:14.595Z,5.40
2019-05-12T21:08:53.122Z,5.27
2019-05-12T21:11:14.763Z,6.87
2019-05-12T21:13:44.036Z,7.27
2019-05-12T21:16:17.510Z,5.87
2019-05-12T21:18:50.362Z,7.70
2019-05-12T21:21:14.409Z,6.07
2019-05-12T21:23:45.714Z,9.83
2019-05-12T21:26:14.110Z,6.73
2019-05-12T21:28:48.321Z,5.27
2019-05-12T21:31:20.493Z,5.03
2019-05-12T21:33:47.461Z,5.87
2019-05-12T21:36:24.115Z,5.60
2019-05-12T21:38:46.863Z,10.73
2019-05-12T21:41:15.780Z,12.00
2019-05-12T21:43:44.683Z,6.67
2019-05-12T21:46:15.585Z,6.97
2019-05-12T21:48:44.185Z,8.57
2019-05-12T21:51:16.482Z,8.00
2019-05-12T21:53:43.788Z,5.47
2019-05-12T21:56:14.000Z,5.27
2019-05-12T21:58:53.413Z,5.23
2019-05-12T22:01:15.559Z,5.60
2019-05-12T22:03:45.946Z,10.10
2019-05-12T22:06:21.313Z,6.40
2019-05-12T22:08:45.539Z,11.00
2019-05-12T22:11:14.500Z,6.80
2019-05-12T22:13:46.868Z,4.67
2019-05-12T22:16:14.274Z,6.27
2019-05-12T22:18:43.772Z,5.97
2019-05-12T22:21:13.597Z,7.03
2019-05-12T22:23:50.884Z,5.33
2019-05-12T22:26:13.295Z,10.03
2019-05-12T22:28:46.625Z,11.03
2019-05-12T22:31:13.727Z,7.60
2019-05-12T22:33:49.859Z,6.63
2019-05-12T22:36:20.867Z,6.53
2019-05-12T22:38:44.343Z,5.87
2019-05-12T22:41:13.725Z,6.27
2019-05-12T22:43:45.690Z,7.97
2019-05-12T22:46:16.347Z,8.17
2019-05-12T22:48:45.310Z,7.67
2019-05-12T22:51:19.678Z,5.83
2019-05-12T22:53:44.815Z,6.67
2019-05-12T22:56:18.138Z,6.60
2019-05-12T22:58:44.258Z,9.03
2019-05-12T23:01:16.097Z,5.47
2019-05-12T23:03:51.309Z,5.90
2019-05-12T23:06:23.729Z,7.17
2019-05-12T23:08:49.256Z,7.73
2019-05-12T23:11:16.853Z,4.90
2019-05-12T23:13:45.756Z,11.33
2019-05-12T23:16:19.211Z,9.43
2019-05-12T23:18:45.095Z,5.63
2019-05-12T23:21:17.413Z,7.13
2019-05-12T23:23:50.133Z,8.67
2019-05-12T23:26:15.170Z,7.40
2019-05-12T23:28:46.864Z,7.50
2019-05-12T23:31:19.595Z,5.27
2019-05-12T23:33:45.179Z,6.20
2019-05-12T23:36:15.757Z,7.07
2019-05-12T23:38:44.696Z,8.07
2019-05-12T23:41:13.686Z,6.13
2019-05-12T23:43:42.607Z,8.43
2019-05-12T23:46:11.440Z,7.87
2019-05-12T23:48:40.343Z,7.63
2019-05-12T23:51:09.255Z,6.80
2019-05-12T23:53:38.135Z,6.10
2019-05-12T23:56:06.957Z,6.63
2019-05-12T23:58:35.956Z,7.00
